sensor_id;sensor_type;location;lat;lon;timestamp;pressure;altitude;pressure_sealevel;temperature;humidity
64602;BME280;51013;42.630;23.192;2023-02-08T00:00:49;93661.47;;;-6.54;78.68
64602;BME280;51013;42.630;23.192;2023-02-08T00:03:18;93664.81;;;-6.47;78.67
64602;BME280;51013;42.630;23.192;2023-02-08T00:05:44;93664.81;;;-6.53;78.16
64602;BME280;51013;42.630;23.192;2023-02-08T00:08:11;93608.81;;;-6.88;78.70
64602;BME280;51013;42.630;23.192;2023-02-08T00:10:38;93672.69;;;-6.48;78.92
64602;BME280;51013;42.630;23.192;2023-02-08T00:13:05;93672.09;;;-6.50;79.37
64602;BME280;51013;42.630;23.192;2023-02-08T00:15:31;93670.09;;;-6.35;80.40
64602;BME280;51013;42.630;23.192;2023-02-08T00:17:58;93676.00;;;-6.41;79.64
64602;BME280;51013;42.630;23.192;2023-02-08T00:20:26;93654.81;;;-6.55;79.12
64602;BME280;51013;42.630;23.192;2023-02-08T00:22:53;93672.25;;;-6.32;78.99
64602;BME280;51013;42.630;23.192;2023-02-08T00:25:20;93677.19;;;-6.30;78.79
64602;BME280;51013;42.630;23.192;2023-02-08T00:27:46;93679.31;;;-6.20;78.98
64602;BME280;51013;42.630;23.192;2023-02-08T00:30:13;93685.63;;;-6.23;78.55
64602;BME280;51013;42.630;23.192;2023-02-08T00:32:40;93678.34;;;-6.19;77.46
64602;BME280;51013;42.630;23.192;2023-02-08T00:35:07;93687.19;;;-6.29;78.21
64602;BME280;51013;42.630;23.192;2023-02-08T00:37:35;93695.66;;;-6.21;78.83
64602;BME280;51013;42.630;23.192;2023-02-08T00:40:02;93697.63;;;-6.10;78.92
64602;BME280;51013;42.630;23.192;2023-02-08T00:42:30;93681.69;;;-6.12;79.27
64602;BME280;51013;42.630;23.192;2023-02-08T00:44:57;93674.03;;;-6.26;79.09
64602;BME280;51013;42.630;23.192;2023-02-08T00:47:23;93699.38;;;-6.11;79.22
64602;BME280;51013;42.630;23.192;2023-02-08T00:49:50;93699.53;;;-5.99;78.57
64602;BME280;51013;42.630;23.192;2023-02-08T00:52:17;93703.50;;;-6.10;78.14
64602;BME280;51013;42.630;23.192;2023-02-08T00:54:46;93705.66;;;-6.00;75.92
64602;BME280;51013;42.630;23.192;2023-02-08T00:57:13;93700.53;;;-6.07;76.21
64602;BME280;51013;42.630;23.192;2023-02-08T00:59:40;93700.16;;;-6.03;76.48
64602;BME280;51013;42.630;23.192;2023-02-08T01:02:07;93676.97;;;-6.22;76.00
64602;BME280;51013;42.630;23.192;2023-02-08T01:04:34;93708.22;;;-6.00;76.25
64602;BME280;51013;42.630;23.192;2023-02-08T01:07:01;93707.16;;;-5.92;76.92
64602;BME280;51013;42.630;23.192;2023-02-08T01:09:28;93704.00;;;-5.88;76.52
64602;BME280;51013;42.630;23.192;2023-02-08T01:11:56;93715.06;;;-5.94;76.35
64602;BME280;51013;42.630;23.192;2023-02-08T01:14:23;93715.22;;;-5.89;76.53
64602;BME280;51013;42.630;23.192;2023-02-08T01:16:50;93702.63;;;-5.90;75.88
64602;BME280;51013;42.630;23.192;2023-02-08T01:19:16;93702.63;;;-5.84;75.13
64602;BME280;51013;42.630;23.192;2023-02-08T01:21:43;93711.66;;;-5.81;75.72
64602;BME280;51013;42.630;23.192;2023-02-08T01:24:10;93689.91;;;-6.03;75.44
64602;BME280;51013;42.630;23.192;2023-02-08T01:26:37;93708.38;;;-5.95;74.92
64602;BME280;51013;42.630;23.192;2023-02-08T01:29:06;93704.25;;;-6.02;75.50
64602;BME280;51013;42.630;23.192;2023-02-08T01:31:34;93694.13;;;-5.84;75.41
64602;BME280;51013;42.630;23.192;2023-02-08T01:34:02;93694.91;;;-5.77;75.13
64602;BME280;51013;42.630;23.192;2023-02-08T01:36:31;93699.81;;;-5.69;75.26
64602;BME280;51013;42.630;23.192;2023-02-08T01:38:58;93691.53;;;-5.71;74.83
64602;BME280;51013;42.630;23.192;2023-02-08T01:41:27;93695.53;;;-5.88;74.49
64602;BME280;51013;42.630;23.192;2023-02-08T01:47:13;93701.84;;;-5.91;74.24
64602;BME280;51013;42.630;23.192;2023-02-08T01:49:40;93712.13;;;-5.97;74.71
64602;BME280;51013;42.630;23.192;2023-02-08T01:52:09;93711.94;;;-5.96;74.66
64602;BME280;51013;42.630;23.192;2023-02-08T01:54:39;93695.53;;;-5.81;74.38
64602;BME280;51013;42.630;23.192;2023-02-08T01:57:08;93704.34;;;-5.71;74.59
64602;BME280;51013;42.630;23.192;2023-02-08T01:59:40;93707.50;;;-5.69;75.15
64602;BME280;51013;42.630;23.192;2023-02-08T02:02:11;93708.72;;;-5.85;74.86
64602;BME280;51013;42.630;23.192;2023-02-08T02:04:40;93714.44;;;-5.89;74.33
64602;BME280;51013;42.630;23.192;2023-02-08T02:07:07;93718.28;;;-6.12;76.13
64602;BME280;51013;42.630;23.192;2023-02-08T02:09:39;93717.28;;;-6.11;75.78
64602;BME280;51013;42.630;23.192;2023-02-08T02:12:08;93722.22;;;-6.16;75.89
64602;BME280;51013;42.630;23.192;2023-02-08T02:14:38;93723.56;;;-6.07;75.85
64602;BME280;51013;42.630;23.192;2023-02-08T02:17:05;93721.19;;;-5.95;75.68
64602;BME280;51013;42.630;23.192;2023-02-08T02:19:39;93716.00;;;-5.88;76.00
64602;BME280;51013;42.630;23.192;2023-02-08T02:22:23;93718.44;;;-6.07;76.14
64602;BME280;51013;42.630;23.192;2023-02-08T02:25:14;93720.06;;;-6.26;77.02
64602;BME280;51013;42.630;23.192;2023-02-08T02:28:01;93725.16;;;-6.19;76.99
64602;BME280;51013;42.630;23.192;2023-02-08T02:31:08;93725.34;;;-6.20;77.29
64602;BME280;51013;42.630;23.192;2023-02-08T02:33:50;93728.94;;;-6.28;77.23
64602;BME280;51013;42.630;23.192;2023-02-08T02:36:27;93733.47;;;-6.30;77.97
64602;BME280;51013;42.630;23.192;2023-02-08T02:39:04;93731.88;;;-6.18;78.63
64602;BME280;51013;42.630;23.192;2023-02-08T02:41:39;93735.97;;;-6.03;79.73
64602;BME280;51013;42.630;23.192;2023-02-08T02:44:35;93745.22;;;-6.09;79.63
64602;BME280;51013;42.630;23.192;2023-02-08T02:47:09;93740.72;;;-6.14;79.94
64602;BME280;51013;42.630;23.192;2023-02-08T02:49:46;93731.25;;;-6.27;80.54
64602;BME280;51013;42.630;23.192;2023-02-08T02:52:18;93741.69;;;-6.21;80.29
64602;BME280;51013;42.630;23.192;2023-02-08T02:54:50;93735.78;;;-6.09;79.99
64602;BME280;51013;42.630;23.192;2023-02-08T02:57:21;93744.63;;;-6.11;80.20
64602;BME280;51013;42.630;23.192;2023-02-08T02:59:49;93739.53;;;-6.11;79.91
64602;BME280;51013;42.630;23.192;2023-02-08T03:02:16;93751.72;;;-6.00;80.28
64602;BME280;51013;42.630;23.192;2023-02-08T03:04:51;93756.94;;;-5.88;79.72
64602;BME280;51013;42.630;23.192;2023-02-08T03:07:30;93745.75;;;-5.87;79.42
64602;BME280;51013;42.630;23.192;2023-02-08T03:10:09;93738.88;;;-5.93;79.31
64602;BME280;51013;42.630;23.192;2023-02-08T03:12:49;93747.69;;;-5.82;79.62
64602;BME280;51013;42.630;23.192;2023-02-08T03:15:28;93755.84;;;-6.06;80.18
64602;BME280;51013;42.630;23.192;2023-02-08T03:18:04;93758.22;;;-6.17;80.90
64602;BME280;51013;42.630;23.192;2023-02-08T03:20:37;93757.81;;;-6.14;80.46
64602;BME280;51013;42.630;23.192;2023-02-08T03:23:08;93759.41;;;-6.13;80.97
64602;BME280;51013;42.630;23.192;2023-02-08T03:25:47;93764.34;;;-6.32;82.22
64602;BME280;51013;42.630;23.192;2023-02-08T03:28:21;93754.72;;;-6.36;82.90
64602;BME280;51013;42.630;23.192;2023-02-08T03:30:55;93750.94;;;-6.20;82.49
64602;BME280;51013;42.630;23.192;2023-02-08T03:33:31;93758.22;;;-6.17;82.02
64602;BME280;51013;42.630;23.192;2023-02-08T03:36:04;93751.34;;;-6.10;81.96
64602;BME280;51013;42.630;23.192;2023-02-08T03:38:35;93752.31;;;-6.11;81.93
64602;BME280;51013;42.630;23.192;2023-02-08T03:41:05;93753.50;;;-6.20;81.92
64602;BME280;51013;42.630;23.192;2023-02-08T03:43:37;93741.91;;;-6.36;82.31
64602;BME280;51013;42.630;23.192;2023-02-08T03:46:09;93745.25;;;-6.36;82.33
64602;BME280;51013;42.630;23.192;2023-02-08T03:48:40;93737.97;;;-6.32;82.38
64602;BME280;51013;42.630;23.192;2023-02-08T03:51:10;93744.06;;;-6.27;82.57
64602;BME280;51013;42.630;23.192;2023-02-08T03:53:38;93744.84;;;-6.33;82.56
64602;BME280;51013;42.630;23.192;2023-02-08T03:56:10;93734.66;;;-6.53;82.08
64602;BME280;51013;42.630;23.192;2023-02-08T03:58:44;93736.00;;;-6.57;82.45
64602;BME280;51013;42.630;23.192;2023-02-08T04:01:15;93726.16;;;-6.80;82.43
64602;BME280;51013;42.630;23.192;2023-02-08T04:03:44;93729.72;;;-6.74;82.62
64602;BME280;51013;42.630;23.192;2023-02-08T04:06:14;93734.84;;;-6.74;82.39
64602;BME280;51013;42.630;23.192;2023-02-08T04:08:41;93745.06;;;-6.74;82.58
64602;BME280;51013;42.630;23.192;2023-02-08T04:11:08;93739.53;;;-6.78;82.39
64602;BME280;51013;42.630;23.192;2023-02-08T04:13:34;93738.13;;;-6.94;83.20
64602;BME280;51013;42.630;23.192;2023-02-08T04:16:01;93733.84;;;-6.87;83.25
64602;BME280;51013;42.630;23.192;2023-02-08T04:18:28;93734.22;;;-7.03;83.40
64602;BME280;51013;42.630;23.192;2023-02-08T04:20:54;93749.94;;;-6.99;83.64
64602;BME280;51013;42.630;23.192;2023-02-08T04:23:23;93746.81;;;-6.88;83.55
64602;BME280;51013;42.630;23.192;2023-02-08T04:25:50;93749.16;;;-6.80;83.60
64602;BME280;51013;42.630;23.192;2023-02-08T04:28:16;93747.97;;;-6.97;84.51
64602;BME280;51013;42.630;23.192;2023-02-08T04:30:43;93754.25;;;-7.00;84.84
64602;BME280;51013;42.630;23.192;2023-02-08T04:33:09;93755.03;;;-7.06;85.64
64602;BME280;51013;42.630;23.192;2023-02-08T04:35:39;93759.13;;;-7.18;86.59
64602;BME280;51013;42.630;23.192;2023-02-08T04:38:06;93756.38;;;-7.17;87.28
64602;BME280;51013;42.630;23.192;2023-02-08T04:40:34;93761.25;;;-7.35;88.39
64602;BME280;51013;42.630;23.192;2023-02-08T04:43:01;93758.03;;;-7.44;89.70
64602;BME280;51013;42.630;23.192;2023-02-08T04:45:27;93760.22;;;-7.48;89.63
64602;BME280;51013;42.630;23.192;2023-02-08T04:47:56;93760.22;;;-7.41;89.81
64602;BME280;51013;42.630;23.192;2023-02-08T04:50:23;93758.03;;;-7.51;90.70
64602;BME280;51013;42.630;23.192;2023-02-08T04:52:50;93764.50;;;-7.55;90.52
64602;BME280;51013;42.630;23.192;2023-02-08T04:55:17;93761.44;;;-7.37;90.12
64602;BME280;51013;42.630;23.192;2023-02-08T04:57:45;93760.81;;;-7.46;90.16
64602;BME280;51013;42.630;23.192;2023-02-08T05:00:12;93767.66;;;-7.53;90.21
64602;BME280;51013;42.630;23.192;2023-02-08T05:02:39;93781.69;;;-7.29;89.18
64602;BME280;51013;42.630;23.192;2023-02-08T05:05:06;93777.75;;;-7.25;88.89
64602;BME280;51013;42.630;23.192;2023-02-08T05:07:33;93787.44;;;-7.13;88.31
64602;BME280;51013;42.630;23.192;2023-02-08T05:10:00;93786.03;;;-7.22;87.61
64602;BME280;51013;42.630;23.192;2023-02-08T05:12:27;93797.19;;;-7.30;88.40
64602;BME280;51013;42.630;23.192;2023-02-08T05:14:56;93799.13;;;-7.39;89.17
64602;BME280;51013;42.630;23.192;2023-02-08T05:17:22;93806.75;;;-7.46;89.72
64602;BME280;51013;42.630;23.192;2023-02-08T05:19:49;93816.81;;;-7.37;88.98
64602;BME280;51013;42.630;23.192;2023-02-08T05:22:16;93824.03;;;-7.48;89.34
64602;BME280;51013;42.630;23.192;2023-02-08T05:24:42;93819.28;;;-7.51;89.48
64602;BME280;51013;42.630;23.192;2023-02-08T05:27:09;93826.38;;;-7.46;89.25
64602;BME280;51013;42.630;23.192;2023-02-08T05:29:36;93816.41;;;-7.34;88.96
64602;BME280;51013;42.630;23.192;2023-02-08T05:32:04;93818.81;;;-7.26;88.77
64602;BME280;51013;42.630;23.192;2023-02-08T05:34:30;93820.59;;;-7.20;88.95
64602;BME280;51013;42.630;23.192;2023-02-08T05:36:57;93830.44;;;-7.23;88.70
64602;BME280;51013;42.630;23.192;2023-02-08T05:39:24;93824.28;;;-7.36;89.36
64602;BME280;51013;42.630;23.192;2023-02-08T05:41:51;93840.44;;;-7.22;89.25
64602;BME280;51013;42.630;23.192;2023-02-08T05:44:17;93833.94;;;-7.25;89.06
64602;BME280;51013;42.630;23.192;2023-02-08T05:46:44;93842.78;;;-7.27;89.24
64602;BME280;51013;42.630;23.192;2023-02-08T05:49:12;93841.63;;;-7.18;88.85
64602;BME280;51013;42.630;23.192;2023-02-08T05:51:39;93843.59;;;-7.20;88.23
64602;BME280;51013;42.630;23.192;2023-02-08T05:54:06;93845.97;;;-7.18;88.15
64602;BME280;51013;42.630;23.192;2023-02-08T05:56:32;93845.00;;;-7.11;88.39
64602;BME280;51013;42.630;23.192;2023-02-08T05:59:00;93843.72;;;-6.93;87.49
64602;BME280;51013;42.630;23.192;2023-02-08T06:01:27;93845.38;;;-6.52;89.00
64602;BME280;51013;42.630;23.192;2023-02-08T06:03:54;93840.66;;;-6.42;86.10
64602;BME280;51013;42.630;23.192;2023-02-08T06:06:22;93841.66;;;-6.36;84.31
64602;BME280;51013;42.630;23.192;2023-02-08T06:08:49;93852.06;;;-6.45;83.72
64602;BME280;51013;42.630;23.192;2023-02-08T06:11:16;93856.38;;;-6.52;84.29
64602;BME280;51013;42.630;23.192;2023-02-08T06:13:43;93848.13;;;-6.47;83.71
64602;BME280;51013;42.630;23.192;2023-02-08T06:16:10;93857.75;;;-6.49;83.69
64602;BME280;51013;42.630;23.192;2023-02-08T06:18:37;93860.31;;;-6.49;83.11
64602;BME280;51013;42.630;23.192;2023-02-08T06:21:05;93850.09;;;-6.49;83.83
64602;BME280;51013;42.630;23.192;2023-02-08T06:23:33;93853.84;;;-6.38;83.59
64602;BME280;51013;42.630;23.192;2023-02-08T06:26:00;93850.50;;;-6.26;83.00
64602;BME280;51013;42.630;23.192;2023-02-08T06:28:27;93857.78;;;-6.29;83.17
64602;BME280;51013;42.630;23.192;2023-02-08T06:30:53;93855.44;;;-6.24;82.71
64602;BME280;51013;42.630;23.192;2023-02-08T06:33:20;93859.38;;;-6.08;82.11
64602;BME280;51013;42.630;23.192;2023-02-08T06:35:50;93858.00;;;-6.04;81.94
64602;BME280;51013;42.630;23.192;2023-02-08T06:38:17;93855.44;;;-6.04;82.04
64602;BME280;51013;42.630;23.192;2023-02-08T06:40:47;93828.69;;;-6.08;81.39
64602;BME280;51013;42.630;23.192;2023-02-08T06:43:14;93854.00;;;-5.80;80.86
64602;BME280;51013;42.630;23.192;2023-02-08T06:45:43;93866.22;;;-5.75;80.30
64602;BME280;51013;42.630;23.192;2023-02-08T06:48:10;93865.44;;;-5.76;79.52
64602;BME280;51013;42.630;23.192;2023-02-08T06:50:37;93872.13;;;-5.75;79.47
64602;BME280;51013;42.630;23.192;2023-02-08T06:53:03;93871.72;;;-5.72;78.77
64602;BME280;51013;42.630;23.192;2023-02-08T06:55:31;93873.91;;;-5.69;78.12
64602;BME280;51013;42.630;23.192;2023-02-08T06:57:59;93874.09;;;-5.57;77.77
64602;BME280;51013;42.630;23.192;2023-02-08T07:00:26;93879.59;;;-5.47;77.17
64602;BME280;51013;42.630;23.192;2023-02-08T07:02:53;93870.72;;;-5.51;77.20
64602;BME280;51013;42.630;23.192;2023-02-08T07:05:19;93875.84;;;-5.44;76.20
64602;BME280;51013;42.630;23.192;2023-02-08T07:07:46;93866.78;;;-5.47;76.41
64602;BME280;51013;42.630;23.192;2023-02-08T07:10:14;93864.97;;;-5.39;75.18
64602;BME280;51013;42.630;23.192;2023-02-08T07:12:40;93871.84;;;-5.33;74.43
64602;BME280;51013;42.630;23.192;2023-02-08T07:15:09;93876.03;;;-5.39;74.51
64602;BME280;51013;42.630;23.192;2023-02-08T07:17:37;93879.78;;;-5.48;74.82
64602;BME280;51013;42.630;23.192;2023-02-08T07:20:05;93886.47;;;-5.54;73.80
64602;BME280;51013;42.630;23.192;2023-02-08T07:22:32;93882.56;;;-5.63;74.37
64602;BME280;51013;42.630;23.192;2023-02-08T07:24:59;93879.41;;;-5.58;75.02
64602;BME280;51013;42.630;23.192;2023-02-08T07:27:26;93880.41;;;-5.73;73.29
64602;BME280;51013;42.630;23.192;2023-02-08T07:29:53;93890.44;;;-5.78;73.89
64602;BME280;51013;42.630;23.192;2023-02-08T07:32:21;93895.97;;;-5.81;73.90
64602;BME280;51013;42.630;23.192;2023-02-08T07:34:47;93892.63;;;-5.95;74.76
64602;BME280;51013;42.630;23.192;2023-02-08T07:37:14;93898.13;;;-5.85;74.56
64602;BME280;51013;42.630;23.192;2023-02-08T07:39:41;93905.22;;;-5.87;74.66
64602;BME280;51013;42.630;23.192;2023-02-08T07:42:08;93902.66;;;-5.93;75.29
64602;BME280;51013;42.630;23.192;2023-02-08T07:44:35;93908.34;;;-5.78;74.63
64602;BME280;51013;42.630;23.192;2023-02-08T07:47:03;93912.31;;;-5.69;75.13
64602;BME280;51013;42.630;23.192;2023-02-08T07:49:31;93902.47;;;-5.65;74.73
64602;BME280;51013;42.630;23.192;2023-02-08T07:51:59;93899.91;;;-5.85;75.03
64602;BME280;51013;42.630;23.192;2023-02-08T07:54:26;93904.03;;;-5.91;75.49
64602;BME280;51013;42.630;23.192;2023-02-08T07:56:53;93914.84;;;-5.82;75.84
64602;BME280;51013;42.630;23.192;2023-02-08T07:59:20;93906.00;;;-5.79;76.00
64602;BME280;51013;42.630;23.192;2023-02-08T08:01:46;93915.63;;;-5.88;76.80
64602;BME280;51013;42.630;23.192;2023-02-08T08:04:13;93905.44;;;-5.95;76.87
64602;BME280;51013;42.630;23.192;2023-02-08T08:06:42;93913.09;;;-5.88;77.98
64602;BME280;51013;42.630;23.192;2023-02-08T08:09:10;93902.88;;;-5.81;78.19
64602;BME280;51013;42.630;23.192;2023-02-08T08:11:39;93916.66;;;-5.69;77.90
64602;BME280;51013;42.630;23.192;2023-02-08T08:14:06;93910.34;;;-5.67;77.53
64602;BME280;51013;42.630;23.192;2023-02-08T08:16:32;93910.16;;;-5.65;76.65
64602;BME280;51013;42.630;23.192;2023-02-08T08:18:59;93917.44;;;-5.69;76.80
64602;BME280;51013;42.630;23.192;2023-02-08T08:21:26;93913.84;;;-5.48;77.10
64602;BME280;51013;42.630;23.192;2023-02-08T08:23:54;93911.47;;;-5.29;75.60
64602;BME280;51013;42.630;23.192;2023-02-08T08:26:21;93916.59;;;-5.29;76.27
64602;BME280;51013;42.630;23.192;2023-02-08T08:28:47;93915.38;;;-5.13;74.84
64602;BME280;51013;42.630;23.192;2023-02-08T08:31:15;93910.88;;;-5.25;74.98
64602;BME280;51013;42.630;23.192;2023-02-08T08:33:42;93917.16;;;-5.27;75.35
64602;BME280;51013;42.630;23.192;2023-02-08T08:36:09;93915.81;;;-5.23;74.16
64602;BME280;51013;42.630;23.192;2023-02-08T08:38:36;93908.06;;;-5.10;74.20
64602;BME280;51013;42.630;23.192;2023-02-08T08:41:11;93912.63;;;-5.12;73.95
64602;BME280;51013;42.630;23.192;2023-02-08T08:43:39;93906.31;;;-5.16;73.45
64602;BME280;51013;42.630;23.192;2023-02-08T08:46:06;93912.00;;;-5.07;73.12
64602;BME280;51013;42.630;23.192;2023-02-08T08:48:33;93862.78;;;-5.29;72.99
64602;BME280;51013;42.630;23.192;2023-02-08T08:51:00;93911.19;;;-4.94;72.07
64602;BME280;51013;42.630;23.192;2023-02-08T08:53:27;93912.75;;;-4.93;72.38
64602;BME280;51013;42.630;23.192;2023-02-08T08:55:53;93916.69;;;-4.91;72.08
64602;BME280;51013;42.630;23.192;2023-02-08T08:58:21;93918.84;;;-4.88;70.84
64602;BME280;51013;42.630;23.192;2023-02-08T09:00:48;93919.63;;;-4.87;70.73
64602;BME280;51013;42.630;23.192;2023-02-08T09:03:15;93926.34;;;-4.93;70.24
64602;BME280;51013;42.630;23.192;2023-02-08T09:05:41;93921.81;;;-4.84;70.89
64602;BME280;51013;42.630;23.192;2023-02-08T09:08:08;93928.13;;;-4.80;70.44
64602;BME280;51013;42.630;23.192;2023-02-08T09:10:35;93939.16;;;-4.79;70.79
64602;BME280;51013;42.630;23.192;2023-02-08T09:13:02;93938.94;;;-4.85;70.19
64602;BME280;51013;42.630;23.192;2023-02-08T09:15:30;93930.91;;;-5.01;70.20
64602;BME280;51013;42.630;23.192;2023-02-08T09:17:56;93936.63;;;-4.93;70.80
64602;BME280;51013;42.630;23.192;2023-02-08T09:20:23;93942.75;;;-5.00;70.75
64602;BME280;51013;42.630;23.192;2023-02-08T09:22:50;93922.31;;;-5.20;71.83
64602;BME280;51013;42.630;23.192;2023-02-08T09:25:17;93939.47;;;-5.21;71.98
64602;BME280;51013;42.630;23.192;2023-02-08T09:27:44;93934.28;;;-5.08;71.85
64602;BME280;51013;42.630;23.192;2023-02-08T09:30:11;93943.97;;;-5.10;71.27
64602;BME280;51013;42.630;23.192;2023-02-08T09:32:40;93950.75;;;-4.77;71.49
64602;BME280;51013;42.630;23.192;2023-02-08T09:35:07;93943.81;;;-4.63;71.21
64602;BME280;51013;42.630;23.192;2023-02-08T09:37:34;93953.81;;;-4.41;69.74
64602;BME280;51013;42.630;23.192;2023-02-08T09:40:00;93949.50;;;-4.48;67.32
64602;BME280;51013;42.630;23.192;2023-02-08T09:42:33;93956.34;;;-4.35;68.72
64602;BME280;51013;42.630;23.192;2023-02-08T09:45:13;93950.56;;;-4.24;66.90
64602;BME280;51013;42.630;23.192;2023-02-08T09:47:51;93944.00;;;-4.13;66.92
64602;BME280;51013;42.630;23.192;2023-02-08T09:50:23;93945.94;;;-4.08;66.32
64602;BME280;51013;42.630;23.192;2023-02-08T09:52:58;93957.03;;;-4.14;66.38
64602;BME280;51013;42.630;23.192;2023-02-08T09:55:31;93947.56;;;-4.20;67.07
64602;BME280;51013;42.630;23.192;2023-02-08T09:58:03;93936.66;;;-4.09;66.89
64602;BME280;51013;42.630;23.192;2023-02-08T10:00:34;93932.22;;;-3.95;66.76
64602;BME280;51013;42.630;23.192;2023-02-08T10:03:03;93932.19;;;-3.89;65.10
64602;BME280;51013;42.630;23.192;2023-02-08T10:05:31;93930.00;;;-3.85;65.57
64602;BME280;51013;42.630;23.192;2023-02-08T10:08:00;93925.59;;;-3.78;64.54
64602;BME280;51013;42.630;23.192;2023-02-08T10:10:36;93924.56;;;-3.70;63.85
64602;BME280;51013;42.630;23.192;2023-02-08T10:13:16;93912.88;;;-3.66;64.06
64602;BME280;51013;42.630;23.192;2023-02-08T10:15:52;93918.78;;;-3.66;64.83
64602;BME280;51013;42.630;23.192;2023-02-08T10:18:31;93920.13;;;-3.63;65.28
64602;BME280;51013;42.630;23.192;2023-02-08T10:27:03;93925.72;;;-3.23;62.80
64602;BME280;51013;42.630;23.192;2023-02-08T10:29:50;93928.09;;;-3.21;63.55
64602;BME280;51013;42.630;23.192;2023-02-08T10:32:33;93928.25;;;-3.16;61.68
64602;BME280;51013;42.630;23.192;2023-02-08T10:35:11;93924.97;;;-2.86;61.52
64602;BME280;51013;42.630;23.192;2023-02-08T10:37:40;93932.97;;;-2.76;59.69
64602;BME280;51013;42.630;23.192;2023-02-08T10:40:25;93937.56;;;-2.59;58.95
64602;BME280;51013;42.630;23.192;2023-02-08T10:43:01;93931.09;;;-2.50;59.66
64602;BME280;51013;42.630;23.192;2023-02-08T10:45:31;93930.59;;;-2.40;59.07
64602;BME280;51013;42.630;23.192;2023-02-08T10:48:04;93930.03;;;-2.12;58.69
64602;BME280;51013;42.630;23.192;2023-02-08T10:50:38;93931.22;;;-1.96;56.83
64602;BME280;51013;42.630;23.192;2023-02-08T10:53:12;93921.16;;;-1.86;56.23
64602;BME280;51013;42.630;23.192;2023-02-08T10:55:42;93932.78;;;-1.95;56.21
64602;BME280;51013;42.630;23.192;2023-02-08T10:58:15;93930.25;;;-1.72;54.90
64602;BME280;51013;42.630;23.192;2023-02-08T11:00:43;93941.19;;;-1.88;56.21
64602;BME280;51013;42.630;23.192;2023-02-08T11:03:17;93934.38;;;-1.83;56.65
64602;BME280;51013;42.630;23.192;2023-02-08T11:05:47;93937.34;;;-1.55;55.29
64602;BME280;51013;42.630;23.192;2023-02-08T11:08:16;93941.53;;;-1.19;55.24
64602;BME280;51013;42.630;23.192;2023-02-08T11:10:55;93942.88;;;-0.93;54.41
64602;BME280;51013;42.630;23.192;2023-02-08T11:13:24;93935.91;;;-0.81;50.16
64602;BME280;51013;42.630;23.192;2023-02-08T11:15:54;93928.84;;;-1.44;52.56
64602;BME280;51013;42.630;23.192;2023-02-08T11:18:23;93940.41;;;-1.23;53.61
64602;BME280;51013;42.630;23.192;2023-02-08T11:20:54;93934.78;;;-1.44;51.53
64602;BME280;51013;42.630;23.192;2023-02-08T11:23:24;93934.91;;;-1.38;52.55
64602;BME280;51013;42.630;23.192;2023-02-08T11:25:53;93919.66;;;-1.28;52.26
64602;BME280;51013;42.630;23.192;2023-02-08T11:28:26;93925.25;;;-0.84;52.45
64602;BME280;51013;42.630;23.192;2023-02-08T11:30:58;93920.41;;;-0.69;52.56
64602;BME280;51013;42.630;23.192;2023-02-08T11:33:25;93923.59;;;-0.09;51.59
64602;BME280;51013;42.630;23.192;2023-02-08T11:35:59;93921.47;;;0.16;50.11
64602;BME280;51013;42.630;23.192;2023-02-08T11:38:26;93917.84;;;0.34;49.22
64602;BME280;51013;42.630;23.192;2023-02-08T11:40:55;93926.69;;;0.22;50.30
64602;BME280;51013;42.630;23.192;2023-02-08T11:43:25;93928.91;;;0.30;52.87
64602;BME280;51013;42.630;23.192;2023-02-08T11:45:53;93934.50;;;0.55;51.69
64602;BME280;51013;42.630;23.192;2023-02-08T11:48:23;93943.28;;;0.09;52.80
64602;BME280;51013;42.630;23.192;2023-02-08T11:50:58;93924.59;;;-0.51;53.27
64602;BME280;51013;42.630;23.192;2023-02-08T11:53:28;93880.19;;;-1.29;55.13
64602;BME280;51013;42.630;23.192;2023-02-08T11:56:17;93938.94;;;-0.95;54.44
64602;BME280;51013;42.630;23.192;2023-02-08T11:58:58;93942.31;;;-0.83;56.09
64602;BME280;51013;42.630;23.192;2023-02-08T12:01:28;93947.81;;;-1.15;57.27
64602;BME280;51013;42.630;23.192;2023-02-08T12:03:57;93945.09;;;-1.08;58.00
64602;BME280;51013;42.630;23.192;2023-02-08T12:06:45;93946.19;;;-1.63;56.80
64602;BME280;51013;42.630;23.192;2023-02-08T12:09:22;93937.34;;;-1.32;57.27
64602;BME280;51013;42.630;23.192;2023-02-08T12:11:55;93916.84;;;-1.15;56.80
64602;BME280;51013;42.630;23.192;2023-02-08T12:14:46;93943.94;;;-0.65;57.28
64602;BME280;51013;42.630;23.192;2023-02-08T12:17:32;93867.16;;;-1.10;55.92
64602;BME280;51013;42.630;23.192;2023-02-08T12:20:33;93930.75;;;-1.04;57.02
64602;BME280;51013;42.630;23.192;2023-02-08T12:23:34;93937.38;;;-1.20;57.79
64602;BME280;51013;42.630;23.192;2023-02-08T12:26:13;93939.50;;;-1.29;58.39
64602;BME280;51013;42.630;23.192;2023-02-08T12:28:52;93929.94;;;-1.40;57.32
64602;BME280;51013;42.630;23.192;2023-02-08T12:31:31;93931.75;;;-1.64;57.51
64602;BME280;51013;42.630;23.192;2023-02-08T12:34:08;93926.41;;;-1.81;58.07
64602;BME280;51013;42.630;23.192;2023-02-08T12:36:47;93928.66;;;-1.85;59.63
64602;BME280;51013;42.630;23.192;2023-02-08T12:39:41;93930.22;;;-1.84;59.32
64602;BME280;51013;42.630;23.192;2023-02-08T12:42:35;93933.69;;;-1.90;59.28
64602;BME280;51013;42.630;23.192;2023-02-08T12:48:10;93942.91;;;-2.12;59.42
64602;BME280;51013;42.630;23.192;2023-02-08T12:50:48;93944.91;;;-1.84;58.84
64602;BME280;51013;42.630;23.192;2023-02-08T12:53:21;93891.78;;;-2.39;59.72
64602;BME280;51013;42.630;23.192;2023-02-08T12:55:57;93946.06;;;-2.10;58.32
64602;BME280;51013;42.630;23.192;2023-02-08T12:58:28;93946.22;;;-1.93;59.95
64602;BME280;51013;42.630;23.192;2023-02-08T13:00:59;93956.66;;;-1.88;58.58
64602;BME280;51013;42.630;23.192;2023-02-08T13:03:33;93970.22;;;-2.11;58.03
64602;BME280;51013;42.630;23.192;2023-02-08T13:06:04;93961.78;;;-2.00;57.25
64602;BME280;51013;42.630;23.192;2023-02-08T13:08:36;93963.88;;;-2.09;57.08
64602;BME280;51013;42.630;23.192;2023-02-08T13:11:10;93959.53;;;-1.96;58.55
64602;BME280;51013;42.630;23.192;2023-02-08T13:13:41;93965.72;;;-1.86;57.27
64602;BME280;51013;42.630;23.192;2023-02-08T13:16:14;93965.56;;;-1.72;56.90
64602;BME280;51013;42.630;23.192;2023-02-08T13:18:46;93954.56;;;-1.79;56.44